sensor_id;sensor_type;location;lat;lon;timestamp;P1;durP1;ratioP1;P2;durP2;ratioP2
8225;SDS011;4154;48.810;9.012;2023-02-18T00:01:26;1.20;;;1.20;;
8225;SDS011;4154;48.810;9.012;2023-02-18T00:03:54;1.30;;;1.20;;
8225;SDS011;4154;48.810;9.012;2023-02-18T00:06:26;1.63;;;1.40;;
8225;SDS011;4154;48.810;9.012;2023-02-18T00:08:54;1.40;;;1.30;;
8225;SDS011;4154;48.810;9.012;2023-02-18T00:11:23;1.13;;;1.13;;
8225;SDS011;4154;48.810;9.012;2023-02-18T00:13:53;1.67;;;1.30;;
8225;SDS011;4154;48.810;9.012;2023-02-18T00:16:21;1.27;;;1.10;;
8225;SDS011;4154;48.810;9.012;2023-02-18T00:18:49;1.47;;;1.37;;
8225;SDS011;4154;48.810;9.012;2023-02-18T00:21:19;1.40;;;1.30;;
8225;SDS011;4154;48.810;9.012;2023-02-18T00:23:45;1.10;;;1.10;;
8225;SDS011;4154;48.810;9.012;2023-02-18T00:26:12;1.23;;;1.20;;
8225;SDS011;4154;48.810;9.012;2023-02-18T00:28:40;1.27;;;1.20;;
8225;SDS011;4154;48.810;9.012;2023-02-18T00:31:13;1.63;;;1.27;;
8225;SDS011;4154;48.810;9.012;2023-02-18T00:33:45;1.40;;;1.30;;
8225;SDS011;4154;48.810;9.012;2023-02-18T00:36:12;1.20;;;1.17;;
8225;SDS011;4154;48.810;9.012;2023-02-18T00:38:44;1.50;;;1.40;;
8225;SDS011;4154;48.810;9.012;2023-02-18T00:41:13;1.33;;;1.03;;
8225;SDS011;4154;48.810;9.012;2023-02-18T00:43:39;1.50;;;1.40;;
8225;SDS011;4154;48.810;9.012;2023-02-18T00:46:05;1.30;;;1.20;;
8225;SDS011;4154;48.810;9.012;2023-02-18T00:48:31;1.57;;;1.47;;
8225;SDS011;4154;48.810;9.012;2023-02-18T00:50:58;1.60;;;1.50;;
8225;SDS011;4154;48.810;9.012;2023-02-18T00:53:24;1.70;;;1.60;;
8225;SDS011;4154;48.810;9.012;2023-02-18T00:55:51;1.67;;;1.57;;
8225;SDS011;4154;48.810;9.012;2023-02-18T00:58:17;1.87;;;1.70;;
8225;SDS011;4154;48.810;9.012;2023-02-18T01:00:43;1.60;;;1.50;;
8225;SDS011;4154;48.810;9.012;2023-02-18T01:03:09;1.53;;;1.43;;
8225;SDS011;4154;48.810;9.012;2023-02-18T01:05:36;1.73;;;1.63;;
8225;SDS011;4154;48.810;9.012;2023-02-18T01:08:03;2.23;;;1.60;;
8225;SDS011;4154;48.810;9.012;2023-02-18T01:10:30;1.60;;;1.50;;
8225;SDS011;4154;48.810;9.012;2023-02-18T01:12:56;1.63;;;1.53;;
8225;SDS011;4154;48.810;9.012;2023-02-18T01:15:22;1.80;;;1.70;;
8225;SDS011;4154;48.810;9.012;2023-02-18T01:17:48;1.73;;;1.63;;
8225;SDS011;4154;48.810;9.012;2023-02-18T01:20:15;1.50;;;1.40;;
8225;SDS011;4154;48.810;9.012;2023-02-18T01:22:42;1.63;;;1.50;;
8225;SDS011;4154;48.810;9.012;2023-02-18T01:25:09;1.70;;;1.60;;
8225;SDS011;4154;48.810;9.012;2023-02-18T01:27:35;1.73;;;1.57;;
8225;SDS011;4154;48.810;9.012;2023-02-18T01:30:05;1.60;;;1.50;;
8225;SDS011;4154;48.810;9.012;2023-02-18T01:32:38;1.70;;;1.60;;
8225;SDS011;4154;48.810;9.012;2023-02-18T01:35:03;2.07;;;1.37;;
8225;SDS011;4154;48.810;9.012;2023-02-18T01:37:30;1.83;;;1.60;;
8225;SDS011;4154;48.810;9.012;2023-02-18T01:39:57;1.60;;;1.50;;
8225;SDS011;4154;48.810;9.012;2023-02-18T01:42:25;1.50;;;1.40;;
8225;SDS011;4154;48.810;9.012;2023-02-18T01:44:53;1.87;;;1.40;;
8225;SDS011;4154;48.810;9.012;2023-02-18T01:47:19;1.53;;;1.40;;
8225;SDS011;4154;48.810;9.012;2023-02-18T01:49:46;1.50;;;1.40;;
8225;SDS011;4154;48.810;9.012;2023-02-18T01:52:18;1.60;;;1.50;;
8225;SDS011;4154;48.810;9.012;2023-02-18T01:54:54;1.60;;;1.50;;
8225;SDS011;4154;48.810;9.012;2023-02-18T01:57:23;1.77;;;1.67;;
8225;SDS011;4154;48.810;9.012;2023-02-18T01:59:57;1.90;;;1.50;;
8225;SDS011;4154;48.810;9.012;2023-02-18T02:02:36;1.70;;;1.60;;
8225;SDS011;4154;48.810;9.012;2023-02-18T02:05:08;1.87;;;1.57;;
8225;SDS011;4154;48.810;9.012;2023-02-18T02:07:34;1.67;;;1.57;;
8225;SDS011;4154;48.810;9.012;2023-02-18T02:10:00;1.60;;;1.50;;
8225;SDS011;4154;48.810;9.012;2023-02-18T02:15:37;1.70;;;1.60;;
8225;SDS011;4154;48.810;9.012;2023-02-18T02:18:16;1.83;;;1.73;;
8225;SDS011;4154;48.810;9.012;2023-02-18T02:29:56;2.10;;;1.90;;
8225;SDS011;4154;48.810;9.012;2023-02-18T02:32:59;1.70;;;1.60;;
8225;SDS011;4154;48.810;9.012;2023-02-18T02:36:11;3.17;;;1.90;;
8225;SDS011;4154;48.810;9.012;2023-02-18T02:41:53;1.93;;;1.73;;
8225;SDS011;4154;48.810;9.012;2023-02-18T02:47:24;1.83;;;1.73;;
8225;SDS011;4154;48.810;9.012;2023-02-18T02:50:25;1.67;;;1.57;;
8225;SDS011;4154;48.810;9.012;2023-02-18T02:52:56;2.13;;;1.80;;
8225;SDS011;4154;48.810;9.012;2023-02-18T02:55:27;1.90;;;1.80;;
8225;SDS011;4154;48.810;9.012;2023-02-18T02:57:53;2.10;;;1.90;;
8225;SDS011;4154;48.810;9.012;2023-02-18T03:00:22;1.57;;;1.47;;
8225;SDS011;4154;48.810;9.012;2023-02-18T03:15:19;1.97;;;1.87;;
8225;SDS011;4154;48.810;9.012;2023-02-18T03:18:23;2.00;;;1.57;;
8225;SDS011;4154;48.810;9.012;2023-02-18T03:21:15;1.90;;;1.80;;
8225;SDS011;4154;48.810;9.012;2023-02-18T03:24:05;1.90;;;1.80;;
8225;SDS011;4154;48.810;9.012;2023-02-18T03:26:44;2.03;;;1.87;;
8225;SDS011;4154;48.810;9.012;2023-02-18T03:29:18;1.87;;;1.63;;
8225;SDS011;4154;48.810;9.012;2023-02-18T03:31:46;2.00;;;1.90;;
8225;SDS011;4154;48.810;9.012;2023-02-18T03:34:22;2.10;;;1.90;;
8225;SDS011;4154;48.810;9.012;2023-02-18T03:36:54;1.90;;;1.80;;
8225;SDS011;4154;48.810;9.012;2023-02-18T03:39:22;1.80;;;1.70;;
8225;SDS011;4154;48.810;9.012;2023-02-18T03:41:53;1.60;;;1.50;;
8225;SDS011;4154;48.810;9.012;2023-02-18T03:44:18;1.87;;;1.77;;
8225;SDS011;4154;48.810;9.012;2023-02-18T03:46:44;2.10;;;1.70;;
8225;SDS011;4154;48.810;9.012;2023-02-18T03:49:11;1.90;;;1.60;;
8225;SDS011;4154;48.810;9.012;2023-02-18T03:51:39;2.00;;;1.90;;
8225;SDS011;4154;48.810;9.012;2023-02-18T03:54:07;1.80;;;1.70;;
8225;SDS011;4154;48.810;9.012;2023-02-18T03:56:34;1.90;;;1.80;;
8225;SDS011;4154;48.810;9.012;2023-02-18T03:59:01;2.03;;;1.90;;
8225;SDS011;4154;48.810;9.012;2023-02-18T04:01:28;1.90;;;1.80;;
8225;SDS011;4154;48.810;9.012;2023-02-18T04:03:54;2.10;;;2.00;;
8225;SDS011;4154;48.810;9.012;2023-02-18T04:06:20;1.90;;;1.80;;
8225;SDS011;4154;48.810;9.012;2023-02-18T04:08:47;2.20;;;1.80;;
8225;SDS011;4154;48.810;9.012;2023-02-18T04:11:13;2.10;;;1.90;;
8225;SDS011;4154;48.810;9.012;2023-02-18T04:13:39;2.07;;;1.73;;
8225;SDS011;4154;48.810;9.012;2023-02-18T04:16:05;1.90;;;1.80;;
8225;SDS011;4154;48.810;9.012;2023-02-18T04:18:31;1.83;;;1.73;;
8225;SDS011;4154;48.810;9.012;2023-02-18T04:20:57;1.87;;;1.77;;
8225;SDS011;4154;48.810;9.012;2023-02-18T04:23:23;1.90;;;1.80;;
8225;SDS011;4154;48.810;9.012;2023-02-18T04:25:48;3.43;;;1.80;;
8225;SDS011;4154;48.810;9.012;2023-02-18T04:28:14;2.77;;;1.90;;
8225;SDS011;4154;48.810;9.012;2023-02-18T04:30:41;1.70;;;1.60;;
8225;SDS011;4154;48.810;9.012;2023-02-18T04:33:11;1.80;;;1.70;;
8225;SDS011;4154;48.810;9.012;2023-02-18T04:35:37;1.80;;;1.70;;
8225;SDS011;4154;48.810;9.012;2023-02-18T04:38:05;2.03;;;1.80;;
8225;SDS011;4154;48.810;9.012;2023-02-18T04:40:32;1.80;;;1.70;;
8225;SDS011;4154;48.810;9.012;2023-02-18T04:42:59;2.17;;;1.60;;
8225;SDS011;4154;48.810;9.012;2023-02-18T04:45:25;1.70;;;1.60;;
8225;SDS011;4154;48.810;9.012;2023-02-18T04:47:52;2.17;;;1.60;;
8225;SDS011;4154;48.810;9.012;2023-02-18T04:50:19;1.80;;;1.70;;
8225;SDS011;4154;48.810;9.012;2023-02-18T04:52:45;1.63;;;1.53;;
8225;SDS011;4154;48.810;9.012;2023-02-18T04:55:11;1.83;;;1.70;;
8225;SDS011;4154;48.810;9.012;2023-02-18T04:57:38;1.83;;;1.70;;
8225;SDS011;4154;48.810;9.012;2023-02-18T05:00:04;1.50;;;1.40;;
8225;SDS011;4154;48.810;9.012;2023-02-18T05:02:33;1.70;;;1.60;;
8225;SDS011;4154;48.810;9.012;2023-02-18T05:04:59;1.80;;;1.70;;
8225;SDS011;4154;48.810;9.012;2023-02-18T05:07:24;1.60;;;1.50;;
8225;SDS011;4154;48.810;9.012;2023-02-18T05:09:50;1.70;;;1.60;;
8225;SDS011;4154;48.810;9.012;2023-02-18T05:12:16;1.77;;;1.67;;
8225;SDS011;4154;48.810;9.012;2023-02-18T05:14:41;2.10;;;1.70;;
8225;SDS011;4154;48.810;9.012;2023-02-18T05:17:07;1.90;;;1.70;;
8225;SDS011;4154;48.810;9.012;2023-02-18T05:19:32;1.73;;;1.63;;
8225;SDS011;4154;48.810;9.012;2023-02-18T05:21:58;1.67;;;1.57;;
8225;SDS011;4154;48.810;9.012;2023-02-18T05:24:24;1.70;;;1.60;;
8225;SDS011;4154;48.810;9.012;2023-02-18T05:26:49;1.60;;;1.50;;
8225;SDS011;4154;48.810;9.012;2023-02-18T05:29:15;1.80;;;1.50;;
8225;SDS011;4154;48.810;9.012;2023-02-18T05:31:41;1.73;;;1.60;;
8225;SDS011;4154;48.810;9.012;2023-02-18T05:34:07;1.50;;;1.40;;
8225;SDS011;4154;48.810;9.012;2023-02-18T05:36:33;1.47;;;1.37;;
8225;SDS011;4154;48.810;9.012;2023-02-18T05:38:58;1.50;;;1.40;;
8225;SDS011;4154;48.810;9.012;2023-02-18T05:41:24;1.53;;;1.43;;
8225;SDS011;4154;48.810;9.012;2023-02-18T05:43:50;1.70;;;1.60;;
8225;SDS011;4154;48.810;9.012;2023-02-18T05:46:34;1.50;;;1.40;;
8225;SDS011;4154;48.810;9.012;2023-02-18T05:48:59;1.47;;;1.37;;
8225;SDS011;4154;48.810;9.012;2023-02-18T05:51:25;1.77;;;1.67;;
8225;SDS011;4154;48.810;9.012;2023-02-18T05:53:50;1.40;;;1.30;;
8225;SDS011;4154;48.810;9.012;2023-02-18T05:56:16;1.50;;;1.40;;
8225;SDS011;4154;48.810;9.012;2023-02-18T05:58:42;1.50;;;1.40;;
8225;SDS011;4154;48.810;9.012;2023-02-18T06:01:07;1.57;;;1.47;;
8225;SDS011;4154;48.810;9.012;2023-02-18T06:03:33;1.37;;;1.27;;
8225;SDS011;4154;48.810;9.012;2023-02-18T06:05:59;2.13;;;1.30;;
8225;SDS011;4154;48.810;9.012;2023-02-18T06:08:24;1.60;;;1.50;;
8225;SDS011;4154;48.810;9.012;2023-02-18T06:10:50;1.40;;;1.30;;
8225;SDS011;4154;48.810;9.012;2023-02-18T06:13:16;1.10;;;1.10;;
8225;SDS011;4154;48.810;9.012;2023-02-18T06:15:41;1.77;;;1.50;;
8225;SDS011;4154;48.810;9.012;2023-02-18T06:18:07;1.60;;;1.30;;
8225;SDS011;4154;48.810;9.012;2023-02-18T06:20:33;1.50;;;1.40;;
8225;SDS011;4154;48.810;9.012;2023-02-18T06:22:58;1.40;;;1.30;;
8225;SDS011;4154;48.810;9.012;2023-02-18T06:25:24;1.50;;;1.40;;
8225;SDS011;4154;48.810;9.012;2023-02-18T06:27:50;1.70;;;1.60;;
8225;SDS011;4154;48.810;9.012;2023-02-18T06:30:16;3.07;;;1.77;;
8225;SDS011;4154;48.810;9.012;2023-02-18T06:32:41;2.03;;;1.83;;
8225;SDS011;4154;48.810;9.012;2023-02-18T06:35:07;3.73;;;1.97;;
8225;SDS011;4154;48.810;9.012;2023-02-18T06:37:33;1.77;;;1.67;;
8225;SDS011;4154;48.810;9.012;2023-02-18T06:39:59;1.73;;;1.60;;
8225;SDS011;4154;48.810;9.012;2023-02-18T06:42:24;2.00;;;1.70;;
8225;SDS011;4154;48.810;9.012;2023-02-18T06:44:50;1.67;;;1.57;;
8225;SDS011;4154;48.810;9.012;2023-02-18T06:47:15;2.17;;;1.70;;
8225;SDS011;4154;48.810;9.012;2023-02-18T06:49:41;2.23;;;2.03;;
8225;SDS011;4154;48.810;9.012;2023-02-18T06:52:07;3.37;;;2.67;;
8225;SDS011;4154;48.810;9.012;2023-02-18T06:54:33;2.70;;;2.50;;
8225;SDS011;4154;48.810;9.012;2023-02-18T06:56:59;2.20;;;2.10;;
8225;SDS011;4154;48.810;9.012;2023-02-18T06:59:25;2.27;;;1.93;;
8225;SDS011;4154;48.810;9.012;2023-02-18T07:01:51;1.90;;;1.80;;
8225;SDS011;4154;48.810;9.012;2023-02-18T07:04:17;1.53;;;1.43;;
8225;SDS011;4154;48.810;9.012;2023-02-18T07:06:42;1.87;;;1.67;;
8225;SDS011;4154;48.810;9.012;2023-02-18T07:09:08;1.77;;;1.67;;
8225;SDS011;4154;48.810;9.012;2023-02-18T07:11:34;1.73;;;1.63;;
8225;SDS011;4154;48.810;9.012;2023-02-18T07:14:00;1.70;;;1.60;;
8225;SDS011;4154;48.810;9.012;2023-02-18T07:16:26;2.13;;;1.93;;
8225;SDS011;4154;48.810;9.012;2023-02-18T07:18:52;1.70;;;1.60;;
8225;SDS011;4154;48.810;9.012;2023-02-18T07:21:17;1.73;;;1.63;;
8225;SDS011;4154;48.810;9.012;2023-02-18T07:23:43;1.77;;;1.67;;
8225;SDS011;4154;48.810;9.012;2023-02-18T07:26:10;1.80;;;1.70;;
8225;SDS011;4154;48.810;9.012;2023-02-18T07:28:38;1.80;;;1.70;;
8225;SDS011;4154;48.810;9.012;2023-02-18T07:31:05;2.10;;;2.00;;
8225;SDS011;4154;48.810;9.012;2023-02-18T07:33:31;2.00;;;1.90;;
8225;SDS011;4154;48.810;9.012;2023-02-18T07:35:59;1.77;;;1.67;;
8225;SDS011;4154;48.810;9.012;2023-02-18T07:38:26;2.43;;;1.90;;
8225;SDS011;4154;48.810;9.012;2023-02-18T07:40:54;1.90;;;1.80;;
8225;SDS011;4154;48.810;9.012;2023-02-18T07:43:20;2.10;;;1.90;;
8225;SDS011;4154;48.810;9.012;2023-02-18T07:45:46;2.03;;;1.93;;
8225;SDS011;4154;48.810;9.012;2023-02-18T07:48:13;2.53;;;1.80;;
8225;SDS011;4154;48.810;9.012;2023-02-18T07:50:40;1.80;;;1.70;;
8225;SDS011;4154;48.810;9.012;2023-02-18T07:53:09;2.10;;;2.00;;
8225;SDS011;4154;48.810;9.012;2023-02-18T07:55:36;2.00;;;1.90;;
8225;SDS011;4154;48.810;9.012;2023-02-18T07:58:18;2.20;;;1.90;;
8225;SDS011;4154;48.810;9.012;2023-02-18T08:00:46;1.90;;;1.80;;
8225;SDS011;4154;48.810;9.012;2023-02-18T08:03:13;1.70;;;1.60;;
8225;SDS011;4154;48.810;9.012;2023-02-18T08:05:43;2.27;;;2.07;;
8225;SDS011;4154;48.810;9.012;2023-02-18T08:08:12;2.00;;;1.80;;
8225;SDS011;4154;48.810;9.012;2023-02-18T08:10:39;2.20;;;1.97;;
8225;SDS011;4154;48.810;9.012;2023-02-18T08:13:05;2.57;;;2.37;;
8225;SDS011;4154;48.810;9.012;2023-02-18T08:15:31;3.80;;;3.20;;
8225;SDS011;4154;48.810;9.012;2023-02-18T08:17:56;2.30;;;2.10;;
8225;SDS011;4154;48.810;9.012;2023-02-18T08:20:22;2.20;;;2.00;;
8225;SDS011;4154;48.810;9.012;2023-02-18T08:22:48;2.10;;;1.90;;
8225;SDS011;4154;48.810;9.012;2023-02-18T08:25:14;1.97;;;1.87;;
8225;SDS011;4154;48.810;9.012;2023-02-18T08:27:39;1.90;;;1.80;;
8225;SDS011;4154;48.810;9.012;2023-02-18T08:30:05;1.80;;;1.70;;
8225;SDS011;4154;48.810;9.012;2023-02-18T08:32:31;1.80;;;1.70;;
8225;SDS011;4154;48.810;9.012;2023-02-18T08:34:57;1.83;;;1.73;;
8225;SDS011;4154;48.810;9.012;2023-02-18T08:37:23;1.87;;;1.77;;
8225;SDS011;4154;48.810;9.012;2023-02-18T08:39:49;3.00;;;1.67;;
8225;SDS011;4154;48.810;9.012;2023-02-18T08:42:15;2.00;;;1.83;;
8225;SDS011;4154;48.810;9.012;2023-02-18T08:44:40;2.38;;;2.15;;
8225;SDS011;4154;48.810;9.012;2023-02-18T08:47:06;2.20;;;1.77;;
8225;SDS011;4154;48.810;9.012;2023-02-18T08:49:32;1.50;;;1.40;;
8225;SDS011;4154;48.810;9.012;2023-02-18T08:51:57;1.73;;;1.30;;
8225;SDS011;4154;48.810;9.012;2023-02-18T08:54:23;1.80;;;1.70;;
8225;SDS011;4154;48.810;9.012;2023-02-18T08:56:49;2.77;;;1.63;;
8225;SDS011;4154;48.810;9.012;2023-02-18T08:59:18;1.60;;;1.50;;
8225;SDS011;4154;48.810;9.012;2023-02-18T09:01:44;1.40;;;1.30;;
8225;SDS011;4154;48.810;9.012;2023-02-18T09:04:10;1.70;;;1.60;;
8225;SDS011;4154;48.810;9.012;2023-02-18T09:06:36;1.63;;;1.53;;
8225;SDS011;4154;48.810;9.012;2023-02-18T09:09:03;1.40;;;1.30;;
8225;SDS011;4154;48.810;9.012;2023-02-18T09:11:29;1.40;;;1.30;;
8225;SDS011;4154;48.810;9.012;2023-02-18T09:13:55;1.80;;;1.50;;
8225;SDS011;4154;48.810;9.012;2023-02-18T09:16:20;1.33;;;1.23;;
8225;SDS011;4154;48.810;9.012;2023-02-18T09:18:46;1.70;;;1.60;;
8225;SDS011;4154;48.810;9.012;2023-02-18T09:21:13;2.53;;;1.40;;
8225;SDS011;4154;48.810;9.012;2023-02-18T09:23:44;2.00;;;1.90;;
8225;SDS011;4154;48.810;9.012;2023-02-18T09:26:11;1.77;;;1.67;;
8225;SDS011;4154;48.810;9.012;2023-02-18T09:28:39;1.67;;;1.58;;
8225;SDS011;4154;48.810;9.012;2023-02-18T09:31:06;1.45;;;1.35;;
8225;SDS011;4154;48.810;9.012;2023-02-18T09:33:44;1.90;;;1.80;;
8225;SDS011;4154;48.810;9.012;2023-02-18T09:36:16;1.88;;;1.77;;
8225;SDS011;4154;48.810;9.012;2023-02-18T09:38:42;1.50;;;1.40;;
8225;SDS011;4154;48.810;9.012;2023-02-18T09:41:09;1.60;;;1.50;;
8225;SDS011;4154;48.810;9.012;2023-02-18T09:43:54;1.40;;;1.30;;
8225;SDS011;4154;48.810;9.012;2023-02-18T09:46:40;1.50;;;1.40;;
8225;SDS011;4154;48.810;9.012;2023-02-18T09:49:18;1.40;;;1.30;;
8225;SDS011;4154;48.810;9.012;2023-02-18T09:52:05;1.50;;;1.40;;
8225;SDS011;4154;48.810;9.012;2023-02-18T09:54:40;1.42;;;1.33;;
8225;SDS011;4154;48.810;9.012;2023-02-18T09:57:05;1.60;;;1.50;;
8225;SDS011;4154;48.810;9.012;2023-02-18T09:59:45;1.40;;;1.30;;
8225;SDS011;4154;48.810;9.012;2023-02-18T10:02:20;1.60;;;1.50;;
8225;SDS011;4154;48.810;9.012;2023-02-18T10:04:47;1.63;;;1.52;;
8225;SDS011;4154;48.810;9.012;2023-02-18T10:07:24;3.20;;;2.13;;
8225;SDS011;4154;48.810;9.012;2023-02-18T10:09:56;1.48;;;1.38;;
8225;SDS011;4154;48.810;9.012;2023-02-18T10:12:32;1.70;;;1.23;;
8225;SDS011;4154;48.810;9.012;2023-02-18T10:14:59;1.80;;;1.13;;
8225;SDS011;4154;48.810;9.012;2023-02-18T10:17:27;1.40;;;1.30;;
8225;SDS011;4154;48.810;9.012;2023-02-18T10:19:59;1.40;;;1.30;;
8225;SDS011;4154;48.810;9.012;2023-02-18T10:22:28;1.50;;;1.40;;
8225;SDS011;4154;48.810;9.012;2023-02-18T10:25:01;1.43;;;1.30;;
8225;SDS011;4154;48.810;9.012;2023-02-18T10:27:31;1.60;;;1.23;;
8225;SDS011;4154;48.810;9.012;2023-02-18T10:33:13;1.80;;;1.20;;
8225;SDS011;4154;48.810;9.012;2023-02-18T10:39:06;2.20;;;1.20;;
8225;SDS011;4154;48.810;9.012;2023-02-18T10:42:08;1.83;;;1.02;;
8225;SDS011;4154;48.810;9.012;2023-02-18T10:47:39;1.20;;;1.10;;
8225;SDS011;4154;48.810;9.012;2023-02-18T10:50:43;1.38;;;1.10;;
8225;SDS011;4154;48.810;9.012;2023-02-18T10:55:49;1.15;;;1.10;;
8225;SDS011;4154;48.810;9.012;2023-02-18T11:01:13;1.42;;;0.90;;
8225;SDS011;4154;48.810;9.012;2023-02-18T11:03:45;1.00;;;1.00;;
8225;SDS011;4154;48.810;9.012;2023-02-18T11:06:24;2.58;;;1.15;;
8225;SDS011;4154;48.810;9.012;2023-02-18T11:08:59;0.90;;;0.90;;
8225;SDS011;4154;48.810;9.012;2023-02-18T11:11:28;1.17;;;1.00;;
8225;SDS011;4154;48.810;9.012;2023-02-18T11:14:03;1.20;;;1.15;;
8225;SDS011;4154;48.810;9.012;2023-02-18T11:16:38;1.10;;;1.00;;
8225;SDS011;4154;48.810;9.012;2023-02-18T11:22:23;2.03;;;1.00;;
8225;SDS011;4154;48.810;9.012;2023-02-18T11:24:53;1.40;;;1.30;;
8225;SDS011;4154;48.810;9.012;2023-02-18T11:32:52;1.45;;;1.00;;
8225;SDS011;4154;48.810;9.012;2023-02-18T11:35:39;1.35;;;1.25;;
8225;SDS011;4154;48.810;9.012;2023-02-18T11:38:27;2.75;;;1.30;;
8225;SDS011;4154;48.810;9.012;2023-02-18T11:41:02;1.40;;;1.30;;
8225;SDS011;4154;48.810;9.012;2023-02-18T11:43:34;1.27;;;1.17;;
8225;SDS011;4154;48.810;9.012;2023-02-18T11:46:22;1.42;;;1.30;;
8225;SDS011;4154;48.810;9.012;2023-02-18T11:48:54;1.50;;;1.40;;
8225;SDS011;4154;48.810;9.012;2023-02-18T11:51:45;1.40;;;1.30;;
8225;SDS011;4154;48.810;9.012;2023-02-18T11:54:25;1.40;;;1.30;;
8225;SDS011;4154;48.810;9.012;2023-02-18T11:57:05;1.58;;;1.48;;
8225;SDS011;4154;48.810;9.012;2023-02-18T11:59:38;1.85;;;1.65;;
8225;SDS011;4154;48.810;9.012;2023-02-18T12:04:36;1.73;;;1.63;;
8225;SDS011;4154;48.810;9.012;2023-02-18T12:07:22;1.75;;;1.60;;
8225;SDS011;4154;48.810;9.012;2023-02-18T12:10:04;1.70;;;1.60;;
8225;SDS011;4154;48.810;9.012;2023-02-18T12:12:47;1.58;;;1.48;;
8225;SDS011;4154;48.810;9.012;2023-02-18T12:15:33;1.58;;;1.48;;
8225;SDS011;4154;48.810;9.012;2023-02-18T12:26:59;1.52;;;1.42;;
8225;SDS011;4154;48.810;9.012;2023-02-18T12:29:30;2.50;;;1.60;;
8225;SDS011;4154;48.810;9.012;2023-02-18T12:35:39;1.50;;;1.40;;
8225;SDS011;4154;48.810;9.012;2023-02-18T12:41:57;1.92;;;1.80;;
8225;SDS011;4154;48.810;9.012;2023-02-18T12:51:03;2.00;;;1.80;;
8225;SDS011;4154;48.810;9.012;2023-02-18T12:54:08;2.45;;;1.83;;
8225;SDS011;4154;48.810;9.012;2023-02-18T12:57:05;4.20;;;1.90;;
8225;SDS011;4154;48.810;9.012;2023-02-18T13:00:10;2.20;;;2.00;;
8225;SDS011;4154;48.810;9.012;2023-02-18T13:06:20;2.38;;;2.17;;
8225;SDS011;4154;48.810;9.012;2023-02-18T13:12:54;2.75;;;2.00;;
8225;SDS011;4154;48.810;9.012;2023-02-18T13:15:52;1.80;;;1.70;;
8225;SDS011;4154;48.810;9.012;2023-02-18T13:18:36;1.92;;;1.83;;
8225;SDS011;4154;48.810;9.012;2023-02-18T13:21:15;2.13;;;1.90;;
8225;SDS011;4154;48.810;9.012;2023-02-18T13:23:44;2.25;;;2.05;;
8225;SDS011;4154;48.810;9.012;2023-02-18T13:26:19;1.80;;;1.70;;
8225;SDS011;4154;48.810;9.012;2023-02-18T13:31:59;1.73;;;1.63;;
8225;SDS011;4154;48.810;9.012;2023-02-18T13:34:46;2.08;;;1.90;;
8225;SDS011;4154;48.810;9.012;2023-02-18T13:38:01;2.75;;;1.80;;
8225;SDS011;4154;48.810;9.012;2023-02-18T13:40:36;2.07;;;1.70;;
8225;SDS011;4154;48.810;9.012;2023-02-18T13:48:33;2.08;;;1.88;;
8225;SDS011;4154;48.810;9.012;2023-02-18T13:51:13;2.08;;;1.98;;
8225;SDS011;4154;48.810;9.012;2023-02-18T13:53:59;2.05;;;1.60;;
8225;SDS011;4154;48.810;9.012;2023-02-18T14:04:55;1.75;;;1.65;;
8225;SDS011;4154;48.810;9.012;2023-02-18T14:12:59;2.60;;;1.90;;
8225;SDS011;4154;48.810;9.012;2023-02-18T14:15:51;2.10;;;1.65;;
8225;SDS011;4154;48.810;9.012;2023-02-18T14:18:22;2.10;;;1.80;;
8225;SDS011;4154;48.810;9.012;2023-02-18T14:24:08;1.75;;;1.58;;
8225;SDS011;4154;48.810;9.012;2023-02-18T14:26:46;1.90;;;1.65;;
8225;SDS011;4154;48.810;9.012;2023-02-18T14:29:23;1.70;;;1.60;;
8225;SDS011;4154;48.810;9.012;2023-02-18T14:32:01;2.13;;;1.83;;
8225;SDS011;4154;48.810;9.012;2023-02-18T14:34:48;1.80;;;1.70;;
8225;SDS011;4154;48.810;9.012;2023-02-18T14:37:39;1.80;;;1.70;;
8225;SDS011;4154;48.810;9.012;2023-02-18T14:40:48;1.60;;;1.50;;
8225;SDS011;4154;48.810;9.012;2023-02-18T14:49:12;2.28;;;1.75;;
8225;SDS011;4154;48.810;9.012;2023-02-18T14:52:10;1.80;;;1.70;;
8225;SDS011;4154;48.810;9.012;2023-02-18T14:54:47;1.90;;;1.70;;
8225;SDS011;4154;48.810;9.012;2023-02-18T14:57:14;1.58;;;1.48;;
8225;SDS011;4154;48.810;9.012;2023-02-18T14:59:45;1.80;;;1.70;;
8225;SDS011;4154;48.810;9.012;2023-02-18T15:02:22;1.80;;;1.70;;
8225;SDS011;4154;48.810;9.012;2023-02-18T15:05:00;1.70;;;1.60;;
8225;SDS011;4154;48.810;9.012;2023-02-18T15:07:53;1.92;;;1.83;;
8225;SDS011;4154;48.810;9.012;2023-02-18T15:10:57;2.08;;;1.98;;
8225;SDS011;4154;48.810;9.012;2023-02-18T15:13:28;2.20;;;2.00;;
8225;SDS011;4154;48.810;9.012;2023-02-18T15:16:19;2.67;;;1.90;;
8225;SDS011;4154;48.810;9.012;2023-02-18T15:19:05;2.10;;;1.90;;
8225;SDS011;4154;48.810;9.012;2023-02-18T15:21:43;1.80;;;1.70;;
8225;SDS011;4154;48.810;9.012;2023-02-18T15:24:29;2.28;;;1.75;;
8225;SDS011;4154;48.810;9.012;2023-02-18T15:27:50;2.00;;;1.88;;
8225;SDS011;4154;48.810;9.012;2023-02-18T15:30:40;2.13;;;1.92;;
8225;SDS011;4154;48.810;9.012;2023-02-18T15:32:55;3.58;;;1.70;;
8225;SDS011;4154;48.810;9.012;2023-02-18T15:35:27;2.28;;;1.77;;
8225;SDS011;4154;48.810;9.012;2023-02-18T15:37:57;2.08;;;1.80;;
8225;SDS011;4154;48.810;9.012;2023-02-18T15:40:27;2.17;;;1.97;;
8225;SDS011;4154;48.810;9.012;2023-02-18T15:42:59;1.90;;;1.80;;
8225;SDS011;4154;48.810;9.012;2023-02-18T15:45:29;1.85;;;1.75;;
8225;SDS011;4154;48.810;9.012;2023-02-18T15:48:03;1.98;;;1.80;;
8225;SDS011;4154;48.810;9.012;2023-02-18T15:50:32;1.80;;;1.70;;
8225;SDS011;4154;48.810;9.012;2023-02-18T15:53:11;1.88;;;1.77;;
8225;SDS011;4154;48.810;9.012;2023-02-18T15:55:43;2.20;;;1.83;;
8225;SDS011;4154;48.810;9.012;2023-02-18T15:58:14;2.33;;;1.80;;
8225;SDS011;4154;48.810;9.012;2023-02-18T16:03:43;2.20;;;1.83;;
8225;SDS011;4154;48.810;9.012;2023-02-18T16:06:12;2.10;;;1.88;;
8225;SDS011;4154;48.810;9.012;2023-02-18T16:11:32;2.23;;;2.03;;
8225;SDS011;4154;48.810;9.012;2023-02-18T16:14:02;2.30;;;2.10;;
8225;SDS011;4154;48.810;9.012;2023-02-18T16:16:30;3.03;;;2.10;;
8225;SDS011;4154;48.810;9.012;2023-02-18T16:19:03;2.43;;;2.20;;
8225;SDS011;4154;48.810;9.012;2023-02-18T16:21:30;3.38;;;2.20;;
8225;SDS011;4154;48.810;9.012;2023-02-18T16:24:26;2.20;;;2.05;;
8225;SDS011;4154;48.810;9.012;2023-02-18T16:26:57;2.30;;;2.10;;
8225;SDS011;4154;48.810;9.012;2023-02-18T16:29:26;2.07;;;1.97;;
8225;SDS011;4154;48.810;9.012;2023-02-18T16:32:05;2.10;;;1.90;;
8225;SDS011;4154;48.810;9.012;2023-02-18T16:34:31;3.20;;;2.20;;
8225;SDS011;4154;48.810;9.012;2023-02-18T16:36:57;2.33;;;2.00;;
8225;SDS011;4154;48.810;9.012;2023-02-18T16:39:41;4.70;;;1.80;;
8225;SDS011;4154;48.810;9.012;2023-02-18T16:42:11;2.20;;;2.00;;
8225;SDS011;4154;48.810;9.012;2023-02-18T16:44:38;2.20;;;2.00;;
8225;SDS011;4154;48.810;9.012;2023-02-18T16:47:04;2.37;;;2.17;;
8225;SDS011;4154;48.810;9.012;2023-02-18T16:49:32;3.23;;;1.80;;
8225;SDS011;4154;48.810;9.012;2023-02-18T16:52:00;1.87;;;1.77;;
8225;SDS011;4154;48.810;9.012;2023-02-18T16:54:32;2.30;;;2.10;;
8225;SDS011;4154;48.810;9.012;2023-02-18T16:56:58;2.50;;;2.30;;
8225;SDS011;4154;48.810;9.012;2023-02-18T16:59:24;2.15;;;2.00;;
8225;SDS011;4154;48.810;9.012;2023-02-18T17:01:50;1.97;;;1.77;;
8225;SDS011;4154;48.810;9.012;2023-02-18T17:04:17;2.37;;;2.17;;
8225;SDS011;4154;48.810;9.012;2023-02-18T17:06:44;2.23;;;2.10;;
8225;SDS011;4154;48.810;9.012;2023-02-18T17:11:44;1.93;;;1.83;;
8225;SDS011;4154;48.810;9.012;2023-02-18T17:14:14;2.30;;;2.10;;
8225;SDS011;4154;48.810;9.012;2023-02-18T17:16:46;2.07;;;1.80;;
8225;SDS011;4154;48.810;9.012;2023-02-18T17:19:16;2.00;;;1.90;;
8225;SDS011;4154;48.810;9.012;2023-02-18T17:21:50;1.90;;;1.80;;
8225;SDS011;4154;48.810;9.012;2023-02-18T17:24:19;2.27;;;2.00;;
8225;SDS011;4154;48.810;9.012;2023-02-18T17:30:06;1.83;;;1.73;;
8225;SDS011;4154;48.810;9.012;2023-02-18T17:32:10;2.10;;;1.90;;
8225;SDS011;4154;48.810;9.012;2023-02-18T17:34:37;2.20;;;2.00;;
8225;SDS011;4154;48.810;9.012;2023-02-18T17:37:05;2.00;;;1.80;;
8225;SDS011;4154;48.810;9.012;2023-02-18T17:39:36;2.00;;;1.90;;
8225;SDS011;4154;48.810;9.012;2023-02-18T17:42:01;2.00;;;1.90;;
8225;SDS011;4154;48.810;9.012;2023-02-18T17:44:28;2.50;;;2.10;;
8225;SDS011;4154;48.810;9.012;2023-02-18T17:46:54;2.90;;;2.40;;
8225;SDS011;4154;48.810;9.012;2023-02-18T17:49:20;3.17;;;2.87;;
8225;SDS011;4154;48.810;9.012;2023-02-18T17:51:46;2.50;;;2.30;;